createdAt,value
2018-06-12T00:01:48.999Z,19.40
2018-06-12T00:04:19.987Z,19.50
2018-06-12T00:06:48.091Z,19.40
2018-06-12T00:09:16.252Z,19.40
2018-06-12T00:11:44.472Z,19.50
2018-06-12T00:14:12.660Z,19.50
2018-06-12T00:16:40.906Z,19.60
2018-06-12T00:19:09.154Z,19.60
2018-06-12T00:21:37.412Z,19.50
2018-06-12T00:26:33.607Z,19.50
2018-06-12T00:29:01.801Z,19.60
2018-06-12T00:31:30.025Z,19.40
2018-06-12T00:33:58.152Z,19.40
2018-06-12T00:36:26.337Z,19.40
2018-06-12T00:38:54.444Z,19.40
2018-06-12T00:41:22.664Z,19.50
2018-06-12T00:43:50.936Z,19.50
2018-06-12T00:46:19.133Z,19.50
2018-06-12T00:48:47.272Z,19.40
2018-06-12T00:51:15.422Z,19.40
2018-06-12T00:53:43.587Z,19.50
2018-06-12T00:57:30.428Z,19.50
2018-06-12T00:59:58.641Z,19.50
2018-06-12T01:04:54.847Z,19.70
2018-06-12T01:07:23.028Z,19.70
2018-06-12T01:09:51.117Z,19.70
2018-06-12T01:12:19.379Z,19.60
2018-06-12T01:14:47.575Z,19.50
2018-06-12T01:17:15.747Z,19.50
2018-06-12T01:19:43.878Z,19.50
2018-06-12T01:22:12.060Z,19.50
2018-06-12T01:24:40.264Z,19.50
2018-06-12T01:27:08.579Z,19.50
2018-06-12T01:29:36.757Z,19.60
2018-06-12T01:32:05.129Z,19.70
2018-06-12T01:34:33.302Z,19.70
2018-06-12T01:37:01.509Z,19.80
2018-06-12T01:39:29.647Z,19.80
2018-06-12T01:41:57.823Z,19.80
2018-06-12T01:44:25.943Z,19.70
2018-06-12T01:46:54.220Z,19.70
2018-06-12T01:49:22.360Z,19.60
2018-06-12T01:51:50.549Z,19.50
2018-06-12T01:54:18.654Z,19.40
2018-06-12T01:56:46.787Z,19.40
2018-06-12T01:59:14.991Z,19.50
2018-06-12T02:01:43.244Z,19.50
2018-06-12T02:06:39.593Z,19.50
2018-06-12T02:09:07.706Z,19.50
2018-06-12T02:11:35.879Z,19.60
2018-06-12T02:14:04.120Z,19.60
2018-06-12T02:16:32.381Z,19.60
2018-06-12T02:19:00.551Z,19.60
2018-06-12T02:21:28.711Z,19.70
2018-06-12T02:23:57.046Z,19.70
2018-06-12T02:26:25.348Z,19.60
2018-06-12T02:28:53.443Z,19.60
2018-06-12T02:31:21.656Z,19.60
2018-06-12T02:33:49.834Z,19.60
2018-06-12T02:36:18.088Z,19.60
2018-06-12T02:41:14.515Z,19.50
2018-06-12T02:43:42.609Z,19.60
2018-06-12T02:46:10.746Z,19.60
2018-06-12T02:48:38.845Z,19.60
2018-06-12T02:51:07.021Z,19.50
2018-06-12T02:53:35.172Z,19.50
2018-06-12T02:56:03.342Z,19.40
2018-06-12T02:58:31.497Z,19.40
2018-06-12T03:00:59.711Z,19.30
2018-06-12T03:08:24.044Z,19.30
2018-06-12T03:10:52.163Z,19.30
2018-06-12T03:13:20.240Z,19.40
2018-06-12T03:15:49.903Z,19.40
2018-06-12T03:18:18.019Z,19.40
2018-06-12T03:20:46.333Z,19.40
2018-06-12T03:23:14.511Z,19.40
2018-06-12T03:25:42.598Z,19.40
2018-06-12T03:28:10.755Z,19.40
2018-06-12T03:30:39.043Z,19.40
2018-06-12T03:33:07.204Z,19.40
2018-06-12T03:35:35.443Z,19.40
2018-06-12T03:38:03.595Z,19.40
2018-06-12T03:40:31.793Z,19.40
2018-06-12T03:43:00.023Z,19.40
2018-06-12T03:45:28.916Z,19.40
2018-06-12T03:47:57.063Z,19.40
2018-06-12T03:50:25.221Z,19.40
2018-06-12T03:52:53.348Z,19.40
2018-06-12T03:55:21.559Z,19.30
2018-06-12T04:00:17.900Z,19.40
2018-06-12T04:02:46.029Z,19.30
2018-06-12T04:05:15.192Z,19.30
2018-06-12T04:07:43.372Z,19.40
2018-06-12T04:12:39.562Z,19.30
2018-06-12T04:15:07.793Z,19.40
2018-06-12T04:17:35.943Z,19.50
2018-06-12T04:22:32.194Z,19.30
2018-06-12T04:25:00.364Z,19.20
2018-06-12T04:27:28.484Z,19.20
2018-06-12T04:29:56.742Z,19.20
2018-06-12T04:32:24.875Z,19.20
2018-06-12T04:34:53.043Z,19.20
2018-06-12T04:37:21.228Z,19.30
2018-06-12T04:39:49.403Z,19.40
2018-06-12T04:42:17.508Z,19.40
2018-06-12T04:44:45.692Z,19.40
2018-06-12T04:47:13.776Z,19.30
2018-06-12T04:49:41.971Z,19.30
2018-06-12T04:52:10.111Z,19.30
2018-06-12T04:54:38.271Z,19.40
2018-06-12T04:57:06.387Z,19.50
2018-06-12T04:59:34.543Z,19.50
2018-06-12T05:02:02.661Z,19.70
2018-06-12T05:04:30.808Z,19.70
2018-06-12T05:07:00.695Z,19.70
2018-06-12T05:09:28.823Z,19.70
2018-06-12T05:11:56.984Z,19.70
2018-06-12T05:14:25.088Z,19.70
2018-06-12T05:16:53.306Z,19.60
2018-06-12T05:19:21.421Z,19.70
2018-06-12T05:21:49.607Z,19.60
2018-06-12T05:24:17.813Z,19.30
2018-06-12T05:26:46.068Z,19.30
2018-06-12T05:29:14.216Z,19.40
2018-06-12T05:31:42.344Z,19.50
2018-06-12T05:34:10.556Z,19.70
2018-06-12T05:36:38.790Z,19.80
2018-06-12T05:41:38.439Z,20.00
2018-06-12T05:44:06.603Z,20.10
2018-06-12T05:46:34.739Z,20.10
2018-06-12T05:49:02.898Z,20.20
2018-06-12T05:51:31.119Z,20.10
2018-06-12T05:53:59.331Z,20.20
2018-06-12T05:56:27.527Z,20.00
2018-06-12T05:58:55.688Z,20.10
2018-06-12T06:01:23.842Z,20.10
2018-06-12T06:03:51.949Z,20.20
2018-06-12T06:06:20.065Z,20.20
2018-06-12T06:08:48.178Z,20.30
2018-06-12T06:11:16.380Z,20.40
2018-06-12T06:13:44.482Z,20.40
2018-06-12T06:16:12.752Z,20.50
2018-06-12T06:18:40.865Z,20.50
2018-06-12T06:21:09.099Z,20.40
2018-06-12T06:23:37.325Z,20.50
2018-06-12T06:26:05.480Z,20.40
2018-06-12T06:28:33.615Z,20.40
2018-06-12T06:31:01.716Z,20.60
2018-06-12T06:33:29.882Z,20.70
2018-06-12T06:35:58.097Z,20.70
2018-06-12T06:38:26.198Z,20.70
2018-06-12T06:40:54.425Z,20.60
2018-06-12T06:43:22.611Z,20.50
2018-06-12T06:45:50.775Z,20.50
2018-06-12T06:48:18.871Z,20.50
2018-06-12T06:50:47.050Z,20.50
2018-06-12T06:53:15.211Z,20.40
2018-06-12T06:55:43.356Z,20.20
2018-06-12T07:00:39.647Z,20.10
2018-06-12T07:03:07.798Z,20.10
2018-06-12T07:05:35.919Z,20.00
2018-06-12T07:08:04.108Z,20.10
2018-06-12T07:10:32.215Z,20.20
2018-06-12T07:13:00.437Z,20.30
2018-06-12T07:15:28.567Z,20.40
2018-06-12T07:17:56.680Z,20.40
2018-06-12T07:21:32.688Z,20.20
2018-06-12T07:24:00.861Z,20.20
2018-06-12T07:26:28.962Z,20.20
2018-06-12T07:28:57.126Z,20.30
2018-06-12T07:31:25.329Z,20.30
2018-06-12T07:33:53.495Z,20.40
2018-06-12T07:36:22.177Z,20.60
2018-06-12T07:38:50.443Z,20.70
2018-06-12T07:41:18.535Z,20.70
2018-06-12T07:43:46.642Z,20.80
2018-06-12T07:46:14.811Z,20.70
2018-06-12T07:48:42.952Z,20.70
2018-06-12T07:51:11.183Z,20.70
2018-06-12T07:56:07.453Z,20.90
2018-06-12T07:58:35.588Z,20.90
2018-06-12T08:01:03.864Z,20.70
2018-06-12T08:03:31.947Z,20.80
2018-06-12T08:06:00.107Z,20.70
2018-06-12T08:08:28.209Z,20.80
2018-06-12T08:10:56.452Z,20.90
2018-06-12T08:15:52.648Z,20.60
2018-06-12T08:18:20.783Z,20.60
2018-06-12T08:20:48.943Z,20.60
2018-06-12T08:23:17.065Z,20.70
2018-06-12T08:25:45.146Z,20.70
2018-06-12T08:28:13.338Z,20.80
2018-06-12T08:30:41.507Z,20.80
2018-06-12T08:33:09.650Z,20.80
2018-06-12T08:35:37.846Z,20.90
2018-06-12T08:38:06.571Z,21.00
2018-06-12T08:40:34.747Z,21.10
2018-06-12T08:43:02.947Z,21.20
2018-06-12T08:45:31.065Z,21.30
2018-06-12T08:50:27.389Z,21.10
2018-06-12T08:52:55.579Z,21.00
2018-06-12T08:57:51.825Z,21.10
2018-06-12T09:00:19.981Z,21.20
2018-06-12T09:02:48.145Z,21.20
2018-06-12T09:05:16.339Z,21.40
2018-06-12T09:07:44.493Z,21.50
2018-06-12T09:10:12.738Z,21.60
2018-06-12T09:12:40.811Z,21.70
2018-06-12T09:15:08.981Z,21.70
2018-06-12T09:17:37.131Z,21.70
2018-06-12T09:20:05.294Z,21.80
2018-06-12T09:22:33.475Z,21.90
2018-06-12T09:25:01.694Z,21.90
2018-06-12T09:30:02.525Z,21.90
2018-06-12T09:32:30.723Z,22.00
2018-06-12T09:34:58.865Z,22.10
2018-06-12T09:37:27.026Z,22.10
2018-06-12T09:39:55.183Z,22.10
2018-06-12T09:42:23.435Z,22.20
2018-06-12T09:44:51.543Z,22.00
2018-06-12T09:47:20.347Z,22.10
2018-06-12T09:49:48.516Z,22.10
2018-06-12T09:52:16.624Z,22.20
2018-06-12T09:54:44.754Z,22.20
2018-06-12T09:57:12.989Z,22.00
2018-06-12T09:59:41.201Z,22.10
2018-06-12T10:02:09.353Z,22.20
2018-06-12T10:04:37.551Z,22.30
2018-06-12T10:07:05.786Z,22.40
2018-06-12T10:09:34.059Z,22.60
2018-06-12T10:12:02.124Z,22.70
2018-06-12T10:16:58.300Z,22.70
2018-06-12T10:19:26.478Z,22.70
2018-06-12T10:21:54.564Z,22.80
2018-06-12T10:24:22.667Z,22.80
2018-06-12T10:29:19.043Z,23.00
2018-06-12T10:31:47.203Z,22.90
2018-06-12T10:34:15.425Z,23.00
2018-06-12T10:36:43.642Z,22.80
2018-06-12T10:39:11.815Z,23.00
2018-06-12T10:41:39.996Z,23.20
2018-06-12T10:44:08.104Z,23.30
2018-06-12T10:46:36.273Z,23.50
2018-06-12T10:49:04.334Z,23.60
2018-06-12T10:51:32.431Z,23.70
2018-06-12T10:54:00.604Z,23.70
2018-06-12T10:56:28.764Z,23.80
2018-06-12T10:58:56.935Z,23.80
2018-06-12T11:01:25.058Z,23.90
2018-06-12T11:06:21.371Z,23.60
2018-06-12T11:08:49.523Z,23.70
2018-06-12T11:11:17.645Z,23.80
2018-06-12T11:16:13.968Z,23.90
2018-06-12T11:18:42.183Z,22.50
2018-06-12T11:21:10.403Z,22.20
2018-06-12T11:23:38.536Z,21.80
2018-06-12T11:26:06.731Z,21.70
2018-06-12T11:28:34.855Z,21.40
2018-06-12T11:31:03.156Z,20.90
2018-06-12T11:33:31.387Z,20.70
2018-06-12T11:35:59.587Z,21.00
2018-06-12T11:38:27.713Z,21.00
2018-06-12T11:40:55.860Z,20.90
2018-06-12T11:43:24.002Z,20.60
2018-06-12T11:45:52.188Z,20.00
2018-06-12T11:48:20.502Z,19.80
2018-06-12T11:50:48.712Z,19.70
2018-06-12T11:53:16.913Z,19.60
2018-06-12T11:55:45.048Z,19.60
2018-06-12T11:58:13.253Z,19.50
2018-06-12T12:00:41.404Z,19.30
2018-06-12T12:03:09.670Z,19.30
2018-06-12T12:08:05.994Z,19.10
2018-06-12T12:10:34.099Z,19.00
2018-06-12T12:13:02.343Z,18.90
2018-06-12T12:15:30.503Z,18.90
2018-06-12T12:17:58.672Z,18.90
2018-06-12T12:20:26.847Z,18.70
2018-06-12T12:22:54.974Z,18.60
2018-06-12T12:25:23.183Z,18.50
2018-06-12T12:27:51.303Z,18.50
2018-06-12T12:30:19.478Z,18.60
2018-06-12T12:32:47.563Z,18.50
2018-06-12T12:35:15.777Z,18.50
2018-06-12T12:37:44.028Z,18.60
2018-06-12T12:40:12.212Z,18.60
2018-06-12T12:42:40.278Z,18.50
2018-06-12T12:45:08.390Z,18.40
2018-06-12T12:47:36.504Z,18.40
2018-06-12T12:50:04.677Z,18.30
2018-06-12T12:52:32.916Z,18.30
2018-06-12T12:55:01.332Z,18.20
2018-06-12T12:57:29.567Z,18.10
2018-06-12T13:02:25.804Z,18.10
2018-06-12T13:04:53.916Z,18.10
2018-06-12T13:07:22.088Z,18.00
2018-06-12T13:09:50.624Z,18.00
2018-06-12T13:14:46.844Z,17.90
2018-06-12T13:17:15.087Z,17.90
2018-06-12T13:19:43.288Z,18.00
2018-06-12T13:22:11.435Z,18.10
2018-06-12T13:24:39.583Z,18.10
2018-06-12T13:27:07.771Z,18.10
2018-06-12T13:29:35.845Z,18.10
2018-06-12T13:32:04.029Z,18.10
2018-06-12T13:34:32.184Z,18.10
2018-06-12T13:37:00.418Z,18.20
2018-06-12T13:39:28.624Z,18.10
2018-06-12T13:41:56.753Z,18.10
2018-06-12T13:44:24.956Z,18.00
2018-06-12T13:49:21.254Z,18.00
2018-06-12T13:51:49.516Z,17.90
2018-06-12T13:54:17.739Z,17.90
2018-06-12T13:59:14.052Z,18.00
2018-06-12T14:01:42.261Z,18.00
2018-06-12T14:06:38.575Z,18.10
2018-06-12T14:09:07.979Z,18.00
2018-06-12T14:11:36.181Z,17.90
2018-06-12T14:14:04.463Z,17.80
2018-06-12T14:16:32.691Z,17.80
2018-06-12T14:19:01.515Z,17.80
2018-06-12T14:21:29.851Z,17.80
2018-06-12T14:23:58.100Z,17.90
2018-06-12T14:26:26.251Z,17.80
2018-06-12T14:28:54.432Z,17.80
2018-06-12T14:31:22.584Z,17.80
2018-06-12T14:33:50.748Z,17.80
2018-06-12T14:36:19.032Z,17.90
2018-06-12T14:38:47.275Z,18.00
2018-06-12T14:41:15.445Z,18.10
2018-06-12T14:43:43.612Z,18.10
2018-06-12T14:46:11.826Z,18.20
2018-06-12T14:48:39.987Z,18.20
2018-06-12T14:53:36.317Z,18.30
2018-06-12T14:56:04.469Z,18.30
2018-06-12T14:58:32.634Z,18.10
2018-06-12T15:01:00.831Z,18.10
2018-06-12T15:03:28.963Z,18.10
2018-06-12T15:05:57.136Z,18.10
2018-06-12T15:08:25.383Z,18.20
2018-06-12T15:10:53.513Z,18.30
2018-06-12T15:13:21.745Z,18.40
2018-06-12T15:15:49.931Z,18.50
2018-06-12T15:18:18.084Z,18.50
2018-06-12T15:20:46.248Z,18.50
2018-06-12T15:23:14.416Z,18.50
2018-06-12T15:25:42.566Z,18.50
2018-06-12T15:30:36.681Z,18.60
2018-06-12T15:33:05.295Z,18.60
2018-06-12T15:35:33.459Z,18.60
2018-06-12T15:38:01.653Z,18.60
2018-06-12T15:40:29.856Z,18.60
2018-06-12T15:42:58.023Z,18.60
2018-06-12T15:45:26.211Z,18.60
2018-06-12T15:47:55.372Z,18.60
2018-06-12T15:50:23.596Z,18.60
2018-06-12T15:52:51.765Z,18.60
2018-06-12T15:57:48.085Z,18.70
2018-06-12T16:00:16.320Z,18.70
2018-06-12T16:02:44.452Z,18.70
2018-06-12T16:05:12.677Z,18.80
2018-06-12T16:07:40.997Z,18.80
2018-06-12T16:12:37.333Z,18.90
2018-06-12T16:15:05.517Z,18.90
2018-06-12T16:20:01.901Z,19.00
2018-06-12T16:22:30.176Z,19.00
2018-06-12T16:24:58.368Z,19.10
2018-06-12T16:27:26.628Z,19.10
2018-06-12T16:29:57.746Z,19.10
2018-06-12T16:32:25.992Z,19.20
2018-06-12T16:34:54.212Z,19.30
2018-06-12T16:37:22.539Z,19.30
2018-06-12T16:39:50.677Z,19.40
2018-06-12T16:42:18.858Z,19.50
2018-06-12T16:44:47.259Z,19.30
2018-06-12T16:47:15.560Z,19.20
2018-06-12T16:49:43.800Z,19.20
2018-06-12T16:52:11.969Z,19.20
2018-06-12T16:54:40.261Z,19.20
2018-06-12T16:57:08.396Z,19.20
2018-06-12T16:59:36.635Z,19.30
2018-06-12T17:02:04.843Z,19.20
2018-06-12T17:04:33.107Z,19.30
2018-06-12T17:07:01.372Z,19.40
2018-06-12T17:09:29.633Z,19.40
2018-06-12T17:11:57.782Z,19.50
2018-06-12T17:14:26.009Z,19.60
2018-06-12T17:16:54.290Z,19.50
2018-06-12T17:19:22.580Z,19.60
2018-06-12T17:21:50.722Z,19.60
2018-06-12T17:24:18.926Z,19.60
2018-06-12T17:26:47.125Z,19.50
2018-06-12T17:31:44.398Z,19.60
2018-06-12T17:34:12.715Z,19.60
2018-06-12T17:36:40.968Z,19.70
2018-06-12T17:39:09.239Z,19.50
2018-06-12T17:41:37.506Z,19.50
2018-06-12T17:46:33.823Z,19.50
2018-06-12T17:49:02.085Z,19.60
2018-06-12T17:51:30.281Z,19.60
2018-06-12T17:56:26.644Z,19.00
2018-06-12T17:58:54.882Z,18.50
2018-06-12T18:01:23.123Z,18.10
2018-06-12T18:03:51.494Z,17.80
2018-06-12T18:06:19.793Z,17.70
2018-06-12T18:08:47.991Z,17.80
2018-06-12T18:13:44.411Z,17.90
2018-06-12T18:16:12.622Z,17.90
2018-06-12T18:18:40.845Z,18.00
2018-06-12T18:21:09.144Z,18.00
2018-06-12T18:23:37.469Z,17.90
2018-06-12T18:26:05.709Z,17.90
2018-06-12T18:28:33.972Z,17.90
2018-06-12T18:33:30.404Z,17.90
2018-06-12T18:35:58.643Z,17.70
2018-06-12T18:38:26.960Z,17.70
2018-06-12T18:40:55.572Z,17.70
2018-06-12T18:45:52.014Z,17.60
2018-06-12T18:48:20.233Z,17.50
2018-06-12T18:50:48.470Z,17.50
2018-06-12T18:53:16.821Z,17.50
2018-06-12T18:55:45.123Z,17.50
2018-06-12T18:58:13.566Z,17.50
2018-06-12T19:00:41.972Z,17.50
2018-06-12T19:03:10.425Z,17.40
2018-06-12T19:05:38.722Z,17.40
2018-06-12T19:08:06.961Z,17.40
2018-06-12T19:10:35.275Z,17.40
2018-06-12T19:13:03.506Z,17.40
2018-06-12T19:15:31.770Z,17.40
2018-06-12T19:18:00.039Z,17.30
2018-06-12T19:20:28.442Z,17.40
2018-06-12T19:22:56.683Z,17.30
2018-06-12T19:25:25.103Z,17.40
2018-06-12T19:27:53.344Z,17.30
2018-06-12T19:30:21.645Z,17.30
2018-06-12T19:32:50.012Z,17.30
2018-06-12T19:35:18.390Z,17.20
2018-06-12T19:37:46.605Z,17.20
2018-06-12T19:40:14.920Z,17.20
2018-06-12T19:42:43.266Z,17.20
2018-06-12T19:45:11.555Z,17.20
2018-06-12T19:47:39.901Z,17.30
2018-06-12T19:50:08.161Z,17.20
2018-06-12T19:52:36.641Z,17.20
2018-06-12T19:55:05.006Z,17.20
2018-06-12T19:57:34.538Z,17.20
2018-06-12T20:00:03.049Z,17.20
2018-06-12T20:02:32.876Z,17.10
2018-06-12T20:05:01.206Z,17.00
2018-06-12T20:09:57.769Z,17.10
2018-06-12T20:12:25.999Z,17.00
2018-06-12T20:14:54.257Z,17.00
2018-06-12T20:17:22.489Z,17.00
2018-06-12T20:19:50.687Z,17.00
2018-06-12T20:22:18.893Z,17.00
2018-06-12T20:24:47.110Z,16.90
2018-06-12T20:27:15.291Z,16.90
2018-06-12T20:29:43.580Z,16.90
2018-06-12T20:32:11.809Z,16.90
2018-06-12T20:34:40.150Z,16.80
2018-06-12T20:37:08.442Z,16.70
2018-06-12T20:39:36.811Z,16.80
2018-06-12T20:42:05.073Z,16.70
2018-06-12T20:44:33.310Z,16.70
2018-06-12T20:47:01.560Z,16.70
2018-06-12T20:49:29.852Z,16.70
2018-06-12T20:51:58.096Z,16.70
2018-06-12T20:54:26.388Z,16.70
2018-06-12T20:56:54.625Z,16.70
2018-06-12T20:59:22.898Z,16.70
2018-06-12T21:01:51.079Z,16.60
2018-06-12T21:04:22.062Z,16.60
2018-06-12T21:06:50.290Z,16.60
2018-06-12T21:11:46.626Z,16.40
2018-06-12T21:14:14.793Z,16.40
2018-06-12T21:16:43.059Z,16.30
2018-06-12T21:19:11.327Z,16.30
2018-06-12T21:26:36.244Z,16.20
2018-06-12T21:29:04.421Z,16.30
2018-06-12T21:34:00.792Z,16.20
2018-06-12T21:36:29.106Z,16.10
2018-06-12T21:38:57.276Z,16.20
2018-06-12T21:41:25.616Z,16.20
2018-06-12T21:43:53.810Z,16.20
2018-06-12T21:46:22.187Z,16.20
2018-06-12T21:48:50.548Z,16.00
2018-06-12T21:51:18.853Z,16.10
2018-06-12T21:56:15.481Z,16.10
2018-06-12T21:58:43.761Z,16.10
2018-06-12T22:01:11.946Z,16.00
2018-06-12T22:03:40.140Z,16.00
2018-06-12T22:06:08.377Z,16.00
2018-06-12T22:08:36.624Z,16.00
2018-06-12T22:11:04.940Z,16.00
2018-06-12T22:13:33.275Z,16.00
2018-06-12T22:16:01.630Z,15.90
2018-06-12T22:18:29.904Z,15.90
2018-06-12T22:20:58.159Z,15.80
2018-06-12T22:23:26.789Z,15.80
2018-06-12T22:25:54.960Z,15.80
2018-06-12T22:28:23.270Z,15.80
2018-06-12T22:30:51.604Z,15.80
2018-06-12T22:33:19.815Z,15.80
2018-06-12T22:35:48.024Z,15.80
2018-06-12T22:38:16.292Z,15.90
2018-06-12T22:43:12.729Z,15.80
2018-06-12T22:45:40.980Z,15.90
2018-06-12T22:50:37.306Z,15.80
2018-06-12T22:53:05.553Z,15.80
2018-06-12T22:55:33.794Z,15.80
2018-06-12T22:58:01.928Z,15.80
2018-06-12T23:00:30.107Z,15.80
2018-06-12T23:02:58.284Z,15.80
2018-06-12T23:05:26.533Z,15.80
2018-06-12T23:07:54.795Z,15.70
2018-06-12T23:10:23.093Z,15.70
2018-06-12T23:12:51.140Z,15.70
2018-06-12T23:15:19.393Z,15.70
2018-06-12T23:17:47.659Z,15.70
2018-06-12T23:20:32.879Z,15.60
2018-06-12T23:23:01.098Z,15.70
2018-06-12T23:25:29.303Z,15.60
2018-06-12T23:27:57.495Z,15.50
2018-06-12T23:30:25.626Z,15.50
2018-06-12T23:32:53.920Z,15.50
2018-06-12T23:35:22.143Z,15.50
2018-06-12T23:37:50.327Z,15.40
2018-06-12T23:40:18.571Z,15.40
2018-06-12T23:42:46.822Z,15.40
2018-06-12T23:45:15.041Z,15.40
2018-06-12T23:47:46.407Z,15.40
2018-06-12T23:50:14.539Z,15.30
2018-06-12T23:52:43.396Z,15.30
2018-06-12T23:57:39.740Z,15.20
